createdAt,value
2022-09-12T00:00:52.218Z,-77
2022-09-12T00:03:18.750Z,-76
2022-09-12T00:05:47.082Z,-76
2022-09-12T00:08:14.453Z,-77
2022-09-12T00:10:42.862Z,-77
2022-09-12T00:13:10.103Z,-76
2022-09-12T00:15:44.268Z,-76
2022-09-12T00:18:15.922Z,-77
2022-09-12T00:20:47.078Z,-76
2022-09-12T00:23:14.655Z,-77
2022-09-12T00:25:45.971Z,-76
2022-09-12T00:28:14.295Z,-77
2022-09-12T00:30:43.168Z,-77
2022-09-12T00:33:10.886Z,-77
2022-09-12T00:35:53.011Z,-78
2022-09-12T00:38:21.347Z,-77
2022-09-12T00:40:48.796Z,-77
2022-09-12T00:43:33.996Z,-77
2022-09-12T00:46:13.647Z,-75
2022-09-12T00:48:46.213Z,-75
2022-09-12T00:51:14.244Z,-76
2022-09-12T00:53:44.472Z,-75
2022-09-12T00:56:13.545Z,-76
2022-09-12T00:58:45.270Z,-75
2022-09-12T01:01:12.075Z,-76
2022-09-12T01:03:38.848Z,-75
2022-09-12T01:06:05.374Z,-76
2022-09-12T01:08:34.099Z,-76
2022-09-12T01:11:01.176Z,-76
2022-09-12T01:13:28.727Z,-75
2022-09-12T01:15:56.259Z,-75
2022-09-12T01:18:32.258Z,-76
2022-09-12T01:21:20.648Z,-75
2022-09-12T01:24:22.870Z,-76
2022-09-12T01:27:20.291Z,-76
2022-09-12T01:30:02.242Z,-76
2022-09-12T01:32:54.499Z,-76
2022-09-12T01:35:33.088Z,-76
2022-09-12T01:38:11.889Z,-76
2022-09-12T01:40:58.350Z,-76
2022-09-12T01:43:45.560Z,-75
2022-09-12T01:46:24.971Z,-75
2022-09-12T01:49:07.214Z,-76
2022-09-12T01:51:45.151Z,-76
2022-09-12T01:54:22.915Z,-75
2022-09-12T01:56:53.515Z,-76
2022-09-12T01:59:29.892Z,-76
2022-09-12T02:02:15.254Z,-76
2022-09-12T02:04:52.151Z,-76
2022-09-12T02:07:24.136Z,-77
2022-09-12T02:10:18.047Z,-76
2022-09-12T02:13:00.258Z,-76
2022-09-12T02:15:38.008Z,-76
2022-09-12T02:18:06.662Z,-76
2022-09-12T02:20:48.096Z,-76
2022-09-12T02:23:26.597Z,-76
2022-09-12T02:25:58.073Z,-77
2022-09-12T02:28:38.251Z,-76
2022-09-12T02:31:23.181Z,-76
2022-09-12T02:34:31.471Z,-77
2022-09-12T02:37:06.057Z,-76
2022-09-12T02:39:33.434Z,-76
2022-09-12T02:42:03.968Z,-74
2022-09-12T02:44:33.559Z,-74
2022-09-12T02:47:24.168Z,-74
2022-09-12T02:49:51.435Z,-74
2022-09-12T02:52:18.176Z,-74
2022-09-12T02:54:45.506Z,-75
2022-09-12T02:57:22.800Z,-75
2022-09-12T02:59:52.820Z,-75
2022-09-12T03:02:28.619Z,-75
2022-09-12T03:05:11.815Z,-75
2022-09-12T03:07:53.494Z,-75
2022-09-12T03:10:37.414Z,-75
2022-09-12T03:13:03.951Z,-75
2022-09-12T03:16:12.149Z,-75
2022-09-12T03:18:55.793Z,-75
2022-09-12T03:21:37.260Z,-75
2022-09-12T03:24:16.152Z,-76
2022-09-12T03:26:57.840Z,-74
2022-09-12T03:29:25.532Z,-77
2022-09-12T03:31:55.287Z,-75
2022-09-12T03:34:23.530Z,-75
2022-09-12T03:36:50.573Z,-75
2022-09-12T03:39:17.298Z,-75
2022-09-12T03:41:44.190Z,-75
2022-09-12T03:44:10.919Z,-75
2022-09-12T03:46:37.609Z,-75
2022-09-12T03:49:04.207Z,-75
2022-09-12T03:51:31.094Z,-75
2022-09-12T03:53:57.667Z,-75
2022-09-12T03:56:24.635Z,-76
2022-09-12T03:58:51.162Z,-75
2022-09-12T04:01:19.817Z,-74
2022-09-12T04:03:49.195Z,-76
2022-09-12T04:06:18.360Z,-76
2022-09-12T04:08:48.807Z,-75
2022-09-12T04:11:15.959Z,-75
2022-09-12T04:13:44.652Z,-75
2022-09-12T04:16:12.149Z,-76
2022-09-12T04:18:38.930Z,-76
2022-09-12T04:21:07.663Z,-76
2022-09-12T04:23:35.065Z,-76
2022-09-12T04:26:04.067Z,-77
2022-09-12T04:28:30.629Z,-76
2022-09-12T04:31:03.364Z,-74
2022-09-12T04:33:29.935Z,-76
2022-09-12T04:35:56.623Z,-75
2022-09-12T04:38:23.344Z,-75
2022-09-12T04:40:49.788Z,-75
2022-09-12T04:43:16.704Z,-75
2022-09-12T04:45:43.182Z,-75
2022-09-12T04:48:09.953Z,-75
2022-09-12T04:50:36.635Z,-76
2022-09-12T04:53:03.201Z,-76
2022-09-12T04:55:30.219Z,-76
2022-09-12T04:57:56.726Z,-75
2022-09-12T05:00:23.234Z,-75
2022-09-12T05:02:49.746Z,-75
2022-09-12T05:05:17.543Z,-74
2022-09-12T05:07:44.016Z,-76
2022-09-12T05:10:10.595Z,-75
2022-09-12T05:12:37.067Z,-75
2022-09-12T05:15:04.728Z,-75
2022-09-12T05:17:31.188Z,-75
2022-09-12T05:19:57.872Z,-76
2022-09-12T05:22:24.355Z,-75
2022-09-12T05:24:50.907Z,-75
2022-09-12T05:27:17.708Z,-74
2022-09-12T05:29:44.219Z,-75
2022-09-12T05:32:12.686Z,-76
2022-09-12T05:34:40.207Z,-78
2022-09-12T05:37:06.749Z,-77
2022-09-12T05:39:33.211Z,-76
2022-09-12T05:42:00.700Z,-76
2022-09-12T05:44:28.220Z,-75
2022-09-12T05:46:54.734Z,-75
2022-09-12T05:49:21.608Z,-74
2022-09-12T05:51:48.114Z,-75
2022-09-12T05:54:18.236Z,-75
2022-09-12T05:56:45.659Z,-76
2022-09-12T05:59:17.715Z,-76
2022-09-12T06:01:44.974Z,-75
2022-09-12T06:04:12.229Z,-76
2022-09-12T06:06:47.299Z,-77
2022-09-12T06:09:16.077Z,-73
2022-09-12T06:11:43.602Z,-76
2022-09-12T06:14:14.842Z,-77
2022-09-12T06:16:41.497Z,-78
2022-09-12T06:19:14.260Z,-75
2022-09-12T06:21:40.792Z,-76
2022-09-12T06:24:09.900Z,-77
2022-09-12T06:26:37.150Z,-75
2022-09-12T06:29:04.909Z,-76
2022-09-12T06:31:36.435Z,-76
2022-09-12T06:34:05.817Z,-76
2022-09-12T06:36:36.804Z,-78
2022-09-12T06:39:10.241Z,-78
2022-09-12T06:41:40.474Z,-77
2022-09-12T06:44:14.403Z,-79
2022-09-12T06:46:41.298Z,-66
2022-09-12T06:49:08.210Z,-60
2022-09-12T06:51:36.351Z,-64
2022-09-12T06:54:03.838Z,-64
2022-09-12T06:56:30.764Z,-67
2022-09-12T06:58:58.978Z,-66
2022-09-12T07:01:31.193Z,-65
2022-09-12T07:04:00.209Z,-66
2022-09-12T07:06:32.272Z,-66
2022-09-12T07:09:01.030Z,-63
2022-09-12T07:11:31.738Z,-62
2022-09-12T07:14:01.763Z,-63
2022-09-12T07:16:29.216Z,-61
2022-09-12T07:18:59.372Z,-62
2022-09-12T07:21:27.230Z,-62
2022-09-12T07:23:57.236Z,-62
2022-09-12T07:26:25.284Z,-61
2022-09-12T07:29:07.884Z,-62
2022-09-12T07:31:42.870Z,-62
2022-09-12T07:34:09.928Z,-61
2022-09-12T07:36:36.567Z,-62
2022-09-12T07:39:03.867Z,-62
2022-09-12T07:41:33.858Z,-61
2022-09-12T07:44:02.528Z,-63
2022-09-12T07:46:30.680Z,-63
2022-09-12T07:48:59.292Z,-63
2022-09-12T07:51:27.400Z,-63
2022-09-12T07:53:54.320Z,-63
2022-09-12T07:56:22.580Z,-63
2022-09-12T07:58:50.771Z,-62
2022-09-12T08:01:19.586Z,-63
2022-09-12T08:03:48.819Z,-61
2022-09-12T08:06:20.520Z,-61
2022-09-12T08:08:48.458Z,-62
2022-09-12T08:11:17.287Z,-62
2022-09-12T08:13:45.648Z,-64
2022-09-12T08:16:21.175Z,-65
2022-09-12T08:18:48.827Z,-65
2022-09-12T08:21:29.594Z,-64
2022-09-12T08:24:01.997Z,-65
2022-09-12T08:26:29.112Z,-64
2022-09-12T08:28:55.755Z,-65
2022-09-12T08:31:25.010Z,-65
2022-09-12T08:33:51.999Z,-64
2022-09-12T08:36:24.475Z,-65
2022-09-12T08:38:59.335Z,-63
2022-09-12T08:41:39.847Z,-65
2022-09-12T08:44:43.082Z,-65
2022-09-12T08:47:28.412Z,-65
2022-09-12T08:50:01.032Z,-64
2022-09-12T08:53:11.707Z,-64
2022-09-12T08:55:38.211Z,-57
2022-09-12T08:58:14.920Z,-61
2022-09-12T09:01:20.137Z,-58
2022-09-12T09:04:05.819Z,-60
2022-09-12T09:06:54.119Z,-60
2022-09-12T09:09:20.577Z,-60
2022-09-12T09:12:12.382Z,-61
2022-09-12T09:15:03.414Z,-61
2022-09-12T09:17:44.933Z,-61
2022-09-12T09:20:23.306Z,-61
2022-09-12T09:22:54.886Z,-60
2022-09-12T09:25:25.315Z,-58
2022-09-12T09:27:58.966Z,-58
2022-09-12T09:30:25.485Z,-61
2022-09-12T09:32:59.674Z,-61
2022-09-12T09:35:41.160Z,-59
2022-09-12T09:38:32.857Z,-61
2022-09-12T09:41:11.984Z,-60
2022-09-12T09:43:39.725Z,-59
2022-09-12T09:46:07.076Z,-61
2022-09-12T09:48:37.834Z,-59
2022-09-12T09:51:07.202Z,-62
2022-09-12T09:53:46.755Z,-61
2022-09-12T09:56:34.354Z,-60
2022-09-12T09:59:12.948Z,-60
2022-09-12T10:02:14.789Z,-60
2022-09-12T10:04:55.014Z,-59
2022-09-12T10:07:22.258Z,-59
2022-09-12T10:10:05.165Z,-60
2022-09-12T10:12:31.772Z,-59
2022-09-12T10:15:03.722Z,-59
2022-09-12T10:17:43.764Z,-59
2022-09-12T10:20:32.330Z,-60
2022-09-12T10:23:37.966Z,-59
2022-09-12T10:26:10.859Z,-60
2022-09-12T10:28:42.143Z,-60
2022-09-12T10:31:14.218Z,-59
2022-09-12T10:33:54.045Z,-59
2022-09-12T10:36:21.188Z,-59
2022-09-12T10:39:01.374Z,-59
2022-09-12T10:41:37.420Z,-58
2022-09-12T10:44:17.057Z,-59
2022-09-12T10:46:44.302Z,-58
2022-09-12T10:49:21.612Z,-58
2022-09-12T10:51:48.960Z,-59
2022-09-12T10:54:18.543Z,-59
2022-09-12T10:56:57.438Z,-58
2022-09-12T10:59:27.050Z,-59
2022-09-12T11:02:26.028Z,-58
2022-09-12T11:05:22.724Z,-59
2022-09-12T11:08:03.929Z,-56
2022-09-12T11:10:42.553Z,-59
2022-09-12T11:13:25.738Z,-59
2022-09-12T11:16:01.227Z,-57
2022-09-12T11:18:52.428Z,-58
2022-09-12T11:21:45.501Z,-59
2022-09-12T11:24:21.056Z,-59
2022-09-12T11:27:29.612Z,-61
2022-09-12T11:30:06.919Z,-62
2022-09-12T11:32:55.738Z,-62
2022-09-12T11:35:30.541Z,-59
2022-09-12T11:38:31.576Z,-59
2022-09-12T11:41:06.580Z,-60
2022-09-12T11:43:38.600Z,-61
2022-09-12T11:46:34.369Z,-60
2022-09-12T11:49:09.638Z,-61
2022-09-12T11:51:43.265Z,-63
2022-09-12T11:54:19.070Z,-59
2022-09-12T11:56:47.457Z,-59
2022-09-12T11:59:50.032Z,-59
2022-09-12T12:02:27.817Z,-59
2022-09-12T12:05:23.771Z,-60
2022-09-12T12:08:00.089Z,-59
2022-09-12T12:10:36.193Z,-58
2022-09-12T12:13:16.057Z,-59
2022-09-12T12:15:52.942Z,-59
2022-09-12T12:18:24.466Z,-63
2022-09-12T12:20:52.120Z,-61
2022-09-12T12:23:24.818Z,-61
2022-09-12T12:25:55.113Z,-62
2022-09-12T12:28:50.372Z,-62
2022-09-12T12:31:18.360Z,-62
2022-09-12T12:33:44.893Z,-60
2022-09-12T12:36:34.210Z,-62
2022-09-12T12:39:48.297Z,-75
2022-09-12T12:42:36.041Z,-76
2022-09-12T12:45:08.977Z,-59
2022-09-12T12:47:38.433Z,-60
2022-09-12T12:50:16.191Z,-60
2022-09-12T12:52:50.622Z,-60
2022-09-12T12:55:26.554Z,-60
2022-09-12T12:57:55.998Z,-60
2022-09-12T13:00:25.661Z,-60
2022-09-12T13:03:07.242Z,-60
2022-09-12T13:05:46.286Z,-61
2022-09-12T13:08:18.773Z,-60
2022-09-12T13:10:54.757Z,-60
2022-09-12T13:13:32.256Z,-59
2022-09-12T13:15:58.813Z,-61
2022-09-12T13:18:34.197Z,-61
2022-09-12T13:21:12.643Z,-60
2022-09-12T13:23:39.516Z,-61
2022-09-12T13:26:21.034Z,-60
2022-09-12T13:28:47.849Z,-60
2022-09-12T13:31:26.763Z,-61
2022-09-12T13:34:04.790Z,-61
2022-09-12T13:36:50.402Z,-60
2022-09-12T13:39:29.939Z,-60
2022-09-12T13:42:15.116Z,-60
2022-09-12T13:44:55.268Z,-60
2022-09-12T13:47:34.833Z,-60
2022-09-12T13:50:03.907Z,-60
2022-09-12T13:52:33.616Z,-60
2022-09-12T13:55:02.090Z,-61
2022-09-12T13:57:33.599Z,-60
2022-09-12T14:00:03.169Z,-60
2022-09-12T14:02:31.352Z,-61
2022-09-12T14:05:10.500Z,-60
2022-09-12T14:07:44.145Z,-60
2022-09-12T14:10:18.425Z,-59
2022-09-12T14:12:50.770Z,-61
2022-09-12T14:15:23.704Z,-61
2022-09-12T14:17:52.776Z,-61
2022-09-12T14:20:23.199Z,-61
2022-09-12T14:22:53.170Z,-61
2022-09-12T14:25:23.682Z,-61
2022-09-12T14:27:55.591Z,-60
2022-09-12T14:30:31.965Z,-61
2022-09-12T14:33:10.288Z,-61
2022-09-12T14:35:48.626Z,-60
2022-09-12T14:38:24.641Z,-60
2022-09-12T14:40:59.787Z,-60
2022-09-12T14:43:36.045Z,-59
2022-09-12T14:46:06.245Z,-59
2022-09-12T14:48:43.340Z,-59
2022-09-12T14:51:21.328Z,-60
2022-09-12T14:53:49.978Z,-60
2022-09-12T14:56:17.084Z,-59
2022-09-12T14:58:43.859Z,-58
2022-09-12T15:01:10.346Z,-59
2022-09-12T15:03:57.676Z,-59
2022-09-12T15:06:36.253Z,-59
2022-09-12T15:09:07.020Z,-58
2022-09-12T15:11:33.886Z,-58
2022-09-12T15:14:08.366Z,-58
2022-09-12T15:16:34.837Z,-59
2022-09-12T15:19:01.382Z,-59
2022-09-12T15:21:28.378Z,-59
2022-09-12T15:23:55.313Z,-60
2022-09-12T15:26:27.208Z,-58
2022-09-12T15:28:55.157Z,-59
2022-09-12T15:31:24.708Z,-58
2022-09-12T15:33:51.513Z,-58
2022-09-12T15:36:20.747Z,-59
2022-09-12T15:38:48.259Z,-59
2022-09-12T15:41:28.181Z,-59
2022-09-12T15:43:54.747Z,-59
2022-09-12T15:46:21.772Z,-58
2022-09-12T15:48:48.389Z,-59
2022-09-12T15:51:20.272Z,-58
2022-09-12T15:53:48.387Z,-59
2022-09-12T15:56:17.082Z,-58
2022-09-12T15:58:57.820Z,-58
2022-09-12T16:01:26.343Z,-58
2022-09-12T16:03:52.949Z,-58
2022-09-12T16:06:19.768Z,-59
2022-09-12T16:08:46.280Z,-59
2022-09-12T16:11:24.418Z,-59
2022-09-12T16:13:55.021Z,-59
2022-09-12T16:16:22.073Z,-59
2022-09-12T16:18:49.210Z,-59
2022-09-12T16:21:16.133Z,-59
2022-09-12T16:23:44.427Z,-59
2022-09-12T16:26:11.205Z,-59
2022-09-12T16:28:38.225Z,-60
2022-09-12T16:31:07.031Z,-60
2022-09-12T16:33:34.413Z,-59
2022-09-12T16:36:04.067Z,-60
2022-09-12T16:38:31.556Z,-63
2022-09-12T16:41:06.311Z,-62
2022-09-12T16:43:34.806Z,-61
2022-09-12T16:46:26.202Z,-60
2022-09-12T16:48:54.570Z,-61
2022-09-12T16:51:27.674Z,-62
2022-09-12T16:53:55.347Z,-60
2022-09-12T16:56:22.806Z,-62
2022-09-12T16:58:49.710Z,-61
2022-09-12T17:01:22.677Z,-62
2022-09-12T17:03:53.408Z,-64
2022-09-12T17:06:20.668Z,-60
2022-09-12T17:08:49.980Z,-61
2022-09-12T17:11:22.423Z,-61
2022-09-12T17:14:09.946Z,-62
2022-09-12T17:16:42.760Z,-62
2022-09-12T17:19:16.607Z,-59
2022-09-12T17:21:44.426Z,-58
2022-09-12T17:24:11.197Z,-62
2022-09-12T17:26:37.946Z,-63
2022-09-12T17:29:05.402Z,-62
2022-09-12T17:31:32.683Z,-62
2022-09-12T17:34:00.832Z,-62
2022-09-12T17:36:28.334Z,-62
2022-09-12T17:38:55.557Z,-61
2022-09-12T17:41:25.557Z,-62
2022-09-12T17:43:56.297Z,-62
2022-09-12T17:46:25.400Z,-61
2022-09-12T17:48:56.902Z,-62
2022-09-12T17:51:25.166Z,-61
2022-09-12T17:54:06.886Z,-60
2022-09-12T17:56:34.907Z,-62
2022-09-12T17:59:02.018Z,-62
2022-09-12T18:01:48.372Z,-62
2022-09-12T18:04:15.917Z,-62
2022-09-12T18:06:47.999Z,-59
2022-09-12T18:09:18.125Z,-60
2022-09-12T18:11:45.035Z,-60
2022-09-12T18:14:14.245Z,-62
2022-09-12T18:16:41.991Z,-61
2022-09-12T18:19:08.832Z,-61
2022-09-12T18:21:35.368Z,-57
2022-09-12T18:24:03.108Z,-58
2022-09-12T18:26:31.022Z,-60
2022-09-12T18:28:57.926Z,-59
2022-09-12T18:31:27.639Z,-60
2022-09-12T18:33:54.602Z,-57
2022-09-12T18:36:21.751Z,-62
2022-09-12T18:38:49.118Z,-86
2022-09-12T18:41:21.684Z,-84
2022-09-12T18:43:49.396Z,-84
2022-09-12T18:46:19.047Z,-83
2022-09-12T18:48:46.860Z,-85
2022-09-12T18:51:17.957Z,-84
2022-09-12T18:53:53.049Z,-83
2022-09-12T18:56:20.657Z,-87
2022-09-12T18:58:52.340Z,-88
2022-09-12T19:01:31.288Z,-85
2022-09-12T19:03:58.169Z,-82
2022-09-12T19:06:30.587Z,-86
2022-09-12T19:09:00.197Z,-86
2022-09-12T19:11:29.603Z,-86
2022-09-12T19:13:56.803Z,-85
2022-09-12T19:16:25.742Z,-83
2022-09-12T19:18:53.365Z,-85
2022-09-12T19:21:22.556Z,-84
2022-09-12T19:23:49.782Z,-84
2022-09-12T19:26:17.951Z,-83
2022-09-12T19:28:45.351Z,-83
2022-09-12T19:31:14.737Z,-84
2022-09-12T19:33:42.044Z,-84
2022-09-12T19:36:33.604Z,-83
2022-09-12T19:38:59.281Z,-83
2022-09-12T19:41:26.239Z,-86
2022-09-12T19:43:52.703Z,-83
2022-09-12T19:46:21.523Z,-84
2022-09-12T19:48:48.663Z,-84
2022-09-12T19:51:16.478Z,-83
2022-09-12T19:53:43.416Z,-84
2022-09-12T19:56:11.930Z,-84
2022-09-12T19:58:44.435Z,-85
2022-09-12T20:01:19.927Z,-86
2022-09-12T20:03:46.957Z,-84
2022-09-12T20:06:17.700Z,-85
2022-09-12T20:08:44.777Z,-84
2022-09-12T20:11:14.022Z,-83
2022-09-12T20:13:41.290Z,-83
2022-09-12T20:16:21.357Z,-85
2022-09-12T20:18:52.326Z,-82
2022-09-12T20:21:20.987Z,-83
2022-09-12T20:23:47.696Z,-84
2022-09-12T20:26:14.329Z,-84
2022-09-12T20:28:41.902Z,-83
2022-09-12T20:31:14.447Z,-82
2022-09-12T20:33:41.111Z,-83
2022-09-12T20:36:13.885Z,-82
2022-09-12T20:38:41.924Z,-84
2022-09-12T20:41:10.077Z,-85
2022-09-12T20:43:38.703Z,-84
2022-09-12T20:46:12.626Z,-84
2022-09-12T20:48:39.479Z,-85
2022-09-12T20:51:07.380Z,-83
2022-09-12T20:53:35.372Z,-86
2022-09-12T20:56:03.162Z,-84
2022-09-12T20:58:29.723Z,-82
2022-09-12T21:00:56.725Z,-83
2022-09-12T21:03:23.254Z,-83
2022-09-12T21:05:49.723Z,-83
2022-09-12T21:08:16.635Z,-82
2022-09-12T21:10:44.427Z,-81
2022-09-12T21:13:12.383Z,-81
2022-09-12T21:15:39.996Z,-81
2022-09-12T21:18:06.972Z,-80
2022-09-12T21:20:34.258Z,-82
2022-09-12T21:23:00.796Z,-81
2022-09-12T21:25:29.149Z,-80
2022-09-12T21:27:55.816Z,-81
2022-09-12T21:30:22.449Z,-80
2022-09-12T21:32:49.099Z,-79
2022-09-12T21:35:15.760Z,-80
2022-09-12T21:37:42.259Z,-81
2022-09-12T21:40:09.094Z,-80
2022-09-12T21:42:35.678Z,-82
2022-09-12T21:45:02.403Z,-80
2022-09-12T21:47:29.170Z,-83
2022-09-12T21:49:55.742Z,-80
2022-09-12T21:52:22.367Z,-82
2022-09-12T21:54:48.927Z,-80
2022-09-12T21:57:15.769Z,-82
2022-09-12T21:59:42.447Z,-80
2022-09-12T22:02:10.865Z,-82
2022-09-12T22:04:37.758Z,-81
2022-09-12T22:07:05.513Z,-80
2022-09-12T22:09:32.907Z,-82
2022-09-12T22:11:59.398Z,-83
2022-09-12T22:14:26.885Z,-82
2022-09-12T22:16:53.390Z,-83
2022-09-12T22:19:20.362Z,-84
2022-09-12T22:22:05.809Z,-84
2022-09-12T22:24:32.355Z,-83
2022-09-12T22:27:01.729Z,-82
2022-09-12T22:29:28.654Z,-82
2022-09-12T22:31:55.566Z,-83
2022-09-12T22:34:22.213Z,-81
2022-09-12T22:36:49.334Z,-83
2022-09-12T22:39:16.049Z,-83
2022-09-12T22:41:42.540Z,-80
2022-09-12T22:44:10.932Z,-80
2022-09-12T22:46:38.054Z,-80
2022-09-12T22:49:06.470Z,-80
2022-09-12T22:51:33.911Z,-80
2022-09-12T22:54:00.454Z,-82
2022-09-12T22:56:27.385Z,-81
2022-09-12T22:58:54.312Z,-83
2022-09-12T23:01:20.960Z,-79
2022-09-12T23:03:47.573Z,-80
2022-09-12T23:06:14.237Z,-81
2022-09-12T23:08:40.768Z,-80
2022-09-12T23:11:10.328Z,-80
2022-09-12T23:13:37.914Z,-81
2022-09-12T23:16:06.290Z,-82
2022-09-12T23:18:36.791Z,-84
2022-09-12T23:21:06.655Z,-80
2022-09-12T23:23:34.044Z,-85
2022-09-12T23:26:11.904Z,-81
2022-09-12T23:28:40.441Z,-83
2022-09-12T23:31:09.755Z,-81
2022-09-12T23:33:36.915Z,-82
2022-09-12T23:36:11.449Z,-83
2022-09-12T23:38:38.562Z,-81
2022-09-12T23:41:05.196Z,-81
2022-09-12T23:43:31.865Z,-82
2022-09-12T23:46:00.751Z,-83
2022-09-12T23:48:28.090Z,-80
2022-09-12T23:50:54.681Z,-82
2022-09-12T23:53:21.979Z,-82
2022-09-12T23:55:49.228Z,-82
2022-09-12T23:58:16.750Z,-80
